Time;durP1;ratioP1;P1;durP2;ratioP2;P2;SDS_P1;SDS_P2;PMS_P1;PMS_P2;Temp;Humidity;BMP_temperature;BMP_pressure;BME280_temperature;BME280_humidity;BME280_pressure;Samples;Min_cycle;Max_cycle;Signal;HPM_P1;HPM_P2
2022/08/16 00:01:05;;;;;;;7.60;5.40;;;;;;;21.26;71.18;100569.84;5092988;28;20430;-35
2022/08/16 00:03:31;;;;;;;8.18;5.35;;;;;;;21.19;71.31;100573.03;5093709;28;20028;-35
2022/08/16 00:05:56;;;;;;;6.78;5.30;;;;;;;21.12;71.87;100577.31;5093234;28;20054;-35
2022/08/16 00:08:21;;;;;;;7.43;5.50;;;;;;;21.14;71.48;100558.59;5092973;28;20453;-35
2022/08/16 00:10:46;;;;;;;5.75;5.05;;;;;;;21.12;71.84;100564.38;5093378;28;20519;-34
2022/08/16 00:13:12;;;;;;;7.88;5.68;;;;;;;21.17;71.50;100571.69;5093905;28;20063;-34
2022/08/16 00:15:44;;;;;;;8.98;5.55;;;;;;;21.11;72.01;100570.19;5093878;28;20039;-34
2022/08/16 00:18:10;;;;;;;9.35;6.00;;;;;;;21.03;72.27;100571.72;5093135;28;20047;-34
2022/08/16 00:20:38;;;;;;;8.50;6.10;;;;;;;21.00;72.69;100570.41;5093077;28;20028;-35
2022/08/16 00:23:03;;;;;;;7.25;6.50;;;;;;;21.07;72.63;100569.97;5092963;28;20481;-35
2022/08/16 00:25:29;;;;;;;11.95;6.10;;;;;;;21.00;72.67;100572.34;5093595;28;20076;-35
2022/08/16 00:27:54;;;;;;;6.90;6.20;;;;;;;20.92;72.98;100565.63;5093473;28;20024;-35
2022/08/16 00:30:21;;;;;;;11.20;6.25;;;;;;;20.87;72.99;100573.97;5092671;28;20030;-34
2022/08/16 00:32:49;;;;;;;7.20;6.47;;;;;;;20.82;73.26;100576.81;5092826;28;20075;-34
2022/08/16 00:35:18;;;;;;;8.10;6.88;;;;;;;20.79;73.85;100580.19;5093395;28;20032;-35
2022/08/16 00:37:45;;;;;;;6.65;5.78;;;;;;;20.75;73.49;100582.75;5092808;28;20108;-35
2022/08/16 00:40:14;;;;;;;5.93;5.07;;;;;;;20.85;73.33;100586.41;5092835;28;20024;-35
2022/08/16 00:42:39;;;;;;;6.85;5.90;;;;;;;20.69;73.89;100585.88;5092421;28;20024;-35
2022/08/16 00:45:43;;;;;;;6.70;6.10;;;;;;;20.72;73.10;100588.84;5093024;28;20104;-35
2022/08/16 00:48:12;;;;;;;8.27;6.00;;;;;;;20.60;74.75;100596.78;5070217;28;20094;-34
2022/08/16 00:50:39;;;;;;;6.05;5.43;;;;;;;20.62;74.18;100600.03;5070872;28;20072;-34
2022/08/16 00:53:07;;;;;;;8.23;6.38;;;;;;;20.53;74.72;100597.16;5070687;28;20033;-34
2022/08/16 00:55:35;;;;;;;8.43;6.53;;;;;;;20.54;74.90;100597.97;5069942;28;20028;-34
2022/08/16 00:58:01;;;;;;;9.95;6.47;;;;;;;20.54;73.65;100590.53;5053205;28;20142;-34
2022/08/16 01:00:29;;;;;;;8.43;6.55;;;;;;;20.48;74.96;100601.94;5072070;28;20060;-34
2022/08/16 01:02:58;;;;;;;8.48;5.97;;;;;;;20.44;75.10;100603.63;5073724;28;20039;-34
2022/08/16 01:05:24;;;;;;;7.53;6.20;;;;;;;20.36;75.60;100596.91;5074386;28;20045;-34
2022/08/16 01:07:51;;;;;;;8.80;6.72;;;;;;;20.39;75.62;100601.78;5073833;28;20033;-34
2022/08/16 01:10:16;;;;;;;8.95;6.88;;;;;;;20.36;75.90;100598.84;5074153;28;20350;-35
2022/08/16 01:12:42;;;;;;;8.70;6.45;;;;;;;20.33;75.53;100594.75;5073432;28;20048;-34
2022/08/16 01:15:08;;;;;;;8.32;6.63;;;;;;;20.29;76.03;100591.00;5074104;28;20361;-35
2022/08/16 01:17:33;;;;;;;8.02;6.38;;;;;;;20.28;75.95;100595.66;5073599;28;20059;-34
2022/08/16 01:20:03;;;;;;;7.32;6.63;;;;;;;20.28;76.12;100589.38;5073993;28;20032;-35
2022/08/16 01:22:51;;;;;;;9.95;7.15;;;;;;;20.26;75.60;100591.59;5073599;28;20508;-35
2022/08/16 01:25:25;;;;;;;7.05;6.35;;;;;;;20.25;76.03;100596.28;5088719;28;20051;-35
2022/08/16 01:27:53;;;;;;;9.40;7.30;;;;;;;20.19;76.27;100602.16;5096747;28;20026;-35
2022/08/16 01:30:23;;;;;;;7.68;6.97;;;;;;;20.19;76.49;100600.22;5096455;28;20031;-35
2022/08/16 01:32:50;;;;;;;7.22;6.57;;;;;;;20.14;76.59;100594.81;5096154;28;20099;-35
2022/08/16 01:35:27;;;;;;;8.27;7.00;;;;;;;20.13;76.57;100584.97;5096303;28;20081;-35
2022/08/16 01:37:52;;;;;;;;;;;;;;;20.29;74.21;100588.25;5096704;28;20375;-35
2022/08/16 01:40:20;;;;;;;13.20;8.50;;;;;;;20.10;76.71;100590.22;5096542;28;19990;-35
2022/08/16 01:42:48;;;;;;;8.85;7.60;;;;;;;20.03;77.21;100593.38;5096460;28;20047;-35
2022/08/16 01:45:13;;;;;;;9.73;8.15;;;;;;;20.00;77.48;100588.47;5096209;28;20028;-35
2022/08/16 01:47:41;;;;;;;9.38;8.48;;;;;;;19.95;77.68;100594.84;5096582;28;20024;-35
2022/08/16 01:50:07;;;;;;;9.85;8.95;;;;;;;19.99;77.57;100592.34;5096072;28;20130;-35
2022/08/16 01:52:34;;;;;;;9.60;8.60;;;;;;;19.82;77.26;100575.63;5095395;28;20425;-35
2022/08/16 01:54:59;;;;;;;10.02;8.98;;;;;;;19.85;78.11;100592.28;5095998;28;20036;-35
2022/08/16 01:57:27;;;;;;;10.80;9.80;;;;;;;19.78;78.49;100589.13;5096316;28;20110;-35
2022/08/16 01:59:52;;;;;;;9.15;8.35;;;;;;;19.79;78.68;100588.81;5095732;28;20032;-35
2022/08/16 02:02:17;;;;;;;11.73;8.23;;;;;;;19.80;78.47;100590.44;5095358;28;20062;-35
2022/08/16 02:04:43;;;;;;;10.45;8.38;;;;;;;19.82;79.14;100587.41;5095233;28;20032;-35
2022/08/16 02:07:09;;;;;;;10.20;8.95;;;;;;;19.75;79.13;100587.78;5095562;28;20060;-35
2022/08/16 02:09:36;;;;;;;11.60;9.32;;;;;;;19.72;79.62;100593.06;5095895;28;20058;-35
2022/08/16 02:12:05;;;;;;;10.43;9.32;;;;;;;19.71;79.57;100589.47;5094141;28;20100;-35
2022/08/16 02:14:32;;;;;;;10.50;9.50;;;;;;;19.67;79.79;100587.66;5096087;28;20028;-35
2022/08/16 02:17:01;;;;;;;11.88;9.75;;;;;;;19.59;80.17;100586.34;5095284;28;20032;-35
2022/08/16 02:19:30;;;;;;;9.90;8.90;;;;;;;19.51;80.57;100578.78;5095045;28;20055;-34
2022/08/16 02:21:57;;;;;;;10.02;8.98;;;;;;;19.60;80.31;100590.75;5095394;28;20432;-34
2022/08/16 02:24:23;;;;;;;11.18;9.35;;;;;;;19.59;79.95;100591.03;5094849;28;20559;-35
2022/08/16 02:26:49;;;;;;;10.05;7.90;;;;;;;19.58;80.18;100581.97;5095036;28;20104;-34
2022/08/16 02:29:17;;;;;;;9.60;8.38;;;;;;;19.51;80.57;100576.03;5095788;28;20085;-34
2022/08/16 02:31:43;;;;;;;12.63;8.50;;;;;;;19.49;80.50;100592.81;5095483;28;20028;-34
2022/08/16 02:34:08;;;;;;;10.20;9.20;;;;;;;19.44;80.64;100587.41;5094897;28;20099;-34
2022/08/16 02:36:33;;;;;;;12.40;8.85;;;;;;;19.43;81.04;100584.97;5093933;28;20077;-34
2022/08/16 02:39:00;;;;;;;9.55;8.75;;;;;;;19.38;81.08;100577.63;5095406;28;20104;-34
2022/08/16 02:41:26;;;;;;;16.42;9.32;;;;;;;19.39;80.99;100592.94;5095665;28;20121;-34
2022/08/16 02:43:51;;;;;;;9.75;8.45;;;;;;;19.44;81.02;100590.13;5094766;28;20059;-34
2022/08/16 02:46:16;;;;;;;14.60;9.48;;;;;;;19.37;81.26;100589.66;5095522;28;20024;-34
2022/08/16 02:48:42;;;;;;;12.52;9.60;;;;;;;19.28;82.18;100592.28;5094758;28;20487;-34
2022/08/16 02:51:09;;;;;;;10.43;9.25;;;;;;;19.19;81.78;100590.50;5095292;28;20123;-34
2022/08/16 02:53:36;;;;;;;13.10;9.50;;;;;;;19.16;82.38;100580.09;5094610;28;20024;-34
2022/08/16 02:56:04;;;;;;;13.02;9.30;;;;;;;19.18;82.20;100591.59;5094233;28;20028;-34
2022/08/16 02:58:31;;;;;;;11.43;8.98;;;;;;;19.23;82.00;100586.06;5094517;28;20028;-34
2022/08/16 03:00:57;;;;;;;11.05;9.35;;;;;;;19.04;82.44;100578.63;5094514;28;20024;-34
2022/08/16 03:03:24;;;;;;;10.38;9.27;;;;;;;18.98;83.01;100578.97;5094120;28;20119;-34
2022/08/16 03:05:50;;;;;;;10.82;9.45;;;;;;;18.99;82.90;100581.44;5094338;28;20024;-34
2022/08/16 03:08:17;;;;;;;10.25;8.40;;;;;;;19.06;82.35;100581.06;5094216;28;20035;-34
2022/08/16 03:10:43;;;;;;;11.23;8.80;;;;;;;18.98;82.18;100559.78;5094367;28;20093;-34
2022/08/16 03:13:08;;;;;;;10.15;8.88;;;;;;;18.96;82.60;100571.03;5094430;28;20110;-34
2022/08/16 03:15:34;;;;;;;10.30;8.77;;;;;;;18.98;82.33;100571.59;5093888;28;20024;-34
2022/08/16 03:18:00;;;;;;;11.40;9.50;;;;;;;18.91;83.03;100567.56;5094551;28;20024;-34
2022/08/16 03:20:26;;;;;;;10.73;9.63;;;;;;;18.86;83.25;100565.69;5094270;28;20153;-34
2022/08/16 03:22:51;;;;;;;10.70;9.68;;;;;;;18.89;83.10;100578.81;5093811;28;20097;-34
2022/08/16 03:25:17;;;;;;;8.70;7.90;;;;;;;18.99;82.45;100578.69;5094717;28;20031;-34
2022/08/16 03:27:43;;;;;;;11.82;10.05;;;;;;;18.95;82.72;100574.09;5094838;28;20424;-34
2022/08/16 03:30:13;;;;;;;12.52;10.40;;;;;;;18.86;82.85;100571.19;5094941;28;20119;-34
2022/08/16 03:32:38;;;;;;;11.40;10.30;;;;;;;18.89;83.22;100573.34;5093800;28;20103;-34
2022/08/16 03:35:06;;;;;;;11.07;9.85;;;;;;;18.83;82.97;100565.47;5094082;28;20487;-34
2022/08/16 03:37:31;;;;;;;9.55;8.65;;;;;;;18.92;82.96;100572.75;5094007;28;20027;-34
2022/08/16 03:39:57;;;;;;;10.52;9.43;;;;;;;18.88;82.51;100574.44;5094426;28;20028;-34
2022/08/16 03:42:23;;;;;;;11.60;10.10;;;;;;;18.90;82.78;100576.91;5093619;28;20039;-34
2022/08/16 03:44:48;;;;;;;11.52;10.45;;;;;;;18.90;82.98;100593.34;5093300;28;20111;-34
2022/08/16 03:47:14;;;;;;;12.48;10.73;;;;;;;18.75;83.64;100592.41;5093235;28;20107;-34
2022/08/16 03:49:39;;;;;;;11.35;9.40;;;;;;;18.83;83.24;100585.44;5093752;28;20103;-34
2022/08/16 03:52:05;;;;;;;11.27;9.55;;;;;;;18.90;83.14;100598.81;5093342;28;20108;-34
2022/08/16 03:54:31;;;;;;;13.02;10.25;;;;;;;18.78;83.65;100602.75;5093667;28;20040;-34
2022/08/16 03:56:56;;;;;;;11.80;10.32;;;;;;;18.71;83.76;100596.00;5093676;28;20024;-34
2022/08/16 03:59:22;;;;;;;10.82;8.85;;;;;;;18.72;83.49;100598.44;5093486;28;20103;-34
2022/08/16 04:01:47;;;;;;;12.02;9.65;;;;;;;18.69;83.65;100601.78;5093233;28;20028;-35
2022/08/16 04:04:12;;;;;;;13.55;10.27;;;;;;;18.61;83.95;100599.66;5093220;28;20031;-35
2022/08/16 04:06:38;;;;;;;12.18;11.00;;;;;;;18.64;84.24;100607.28;5093949;28;20028;-35
2022/08/16 04:09:03;;;;;;;12.88;10.68;;;;;;;18.57;84.28;100609.53;5093644;28;20107;-35
2022/08/16 04:11:28;;;;;;;;;;;;;;;18.74;82.66;100612.69;5094118;28;20101;-36
2022/08/16 04:13:54;;;;;;;14.60;11.60;;;;;;;18.57;84.27;100620.50;5093589;28;19939;-35
2022/08/16 04:16:19;;;;;;;11.80;10.60;;;;;;;18.60;84.84;100619.94;5092872;28;20476;-35
2022/08/16 04:18:45;;;;;;;11.60;10.50;;;;;;;18.65;85.02;100619.88;5092691;28;20115;-35
2022/08/16 04:21:11;;;;;;;12.55;10.35;;;;;;;18.67;84.76;100616.84;5093717;28;20038;-35
2022/08/16 04:23:37;;;;;;;10.68;9.68;;;;;;;18.68;84.71;100616.56;5092943;28;20375;-35
2022/08/16 04:26:05;;;;;;;11.68;10.52;;;;;;;18.57;84.24;100611.47;5093433;28;20032;-35
2022/08/16 04:28:30;;;;;;;15.40;10.80;;;;;;;18.58;84.41;100616.66;5092961;28;20020;-35
2022/08/16 04:30:55;;;;;;;11.40;10.30;;;;;;;18.54;84.16;100612.84;5092913;28;20160;-35
2022/08/16 04:33:21;;;;;;;;;;;;;;;18.78;82.32;100626.59;5092948;28;20051;-35
2022/08/16 04:35:46;;;;;;;9.43;8.53;;;;;;;18.65;84.14;100616.31;5092389;28;19916;-35
2022/08/16 04:38:11;;;;;;;;;;;;;;;18.77;81.95;100622.22;5091839;28;20281;-35
2022/08/16 04:40:37;;;;;;;13.97;10.60;;;;;;;18.59;84.67;100622.94;5093064;28;20423;-35
2022/08/16 04:43:02;;;;;;;11.88;10.65;;;;;;;18.55;84.77;100624.66;5092754;28;20119;-35
2022/08/16 04:45:28;;;;;;;;;;;;;;;18.72;82.35;100625.84;5093476;28;20081;-35
2022/08/16 04:47:53;;;;;;;12.15;10.70;;;;;;;18.58;84.78;100624.88;5093222;28;19912;-35
2022/08/16 04:50:25;;;;;;;13.88;11.75;;;;;;;18.50;84.80;100618.13;5093048;28;20428;-35
2022/08/16 04:52:52;;;;;;;14.35;12.50;;;;;;;18.52;85.30;100626.03;5092498;28;20035;-35
2022/08/16 04:55:21;;;;;;;14.02;11.80;;;;;;;18.55;85.29;100624.66;5092721;28;20031;-35
2022/08/16 04:57:48;;;;;;;14.38;11.05;;;;;;;18.54;84.86;100618.31;5092307;28;20031;-35
2022/08/16 05:00:18;;;;;;;10.70;9.70;;;;;;;18.71;84.95;100635.16;5093414;28;20070;-35
2022/08/16 05:02:44;;;;;;;13.60;12.25;;;;;;;18.46;85.73;100616.25;5092205;28;20032;-35
2022/08/16 05:05:10;;;;;;;15.02;13.20;;;;;;;18.57;86.09;100630.63;5092875;28;20134;-35
2022/08/16 05:07:36;;;;;;;12.70;11.40;;;;;;;18.70;85.99;100630.00;5092480;28;20035;-35
2022/08/16 05:10:06;;;;;;;13.32;12.13;;;;;;;18.70;85.82;100639.03;5093029;28;20028;-35
2022/08/16 05:12:32;;;;;;;12.80;11.52;;;;;;;18.81;85.63;100630.69;5093149;28;20147;-35
2022/08/16 05:14:57;;;;;;;13.98;11.32;;;;;;;18.87;85.34;100644.03;5092497;28;20040;-35
2022/08/16 05:17:23;;;;;;;15.38;13.57;;;;;;;18.81;84.45;100644.38;5092759;28;20028;-35
2022/08/16 05:19:49;;;;;;;15.73;14.20;;;;;;;18.86;85.22;100641.59;5092575;28;20036;-35
2022/08/16 05:22:14;;;;;;;11.15;10.05;;;;;;;19.13;83.83;100658.28;5092545;28;20024;-35
2022/08/16 05:24:39;;;;;;;11.68;9.77;;;;;;;19.23;83.85;100663.63;5092583;28;20055;-35
2022/08/16 05:27:05;;;;;;;13.73;11.90;;;;;;;19.15;83.74;100644.25;5092952;28;20054;-35
2022/08/16 05:29:30;;;;;;;13.70;11.32;;;;;;;19.32;83.21;100658.28;5092379;28;20024;-35
2022/08/16 05:31:55;;;;;;;15.70;13.07;;;;;;;19.30;83.03;100652.28;5092525;28;20098;-35
2022/08/16 05:34:21;;;;;;;14.57;13.18;;;;;;;19.38;83.05;100659.88;5092541;28;20426;-35
2022/08/16 05:36:51;;;;;;;12.10;10.82;;;;;;;19.46;82.81;100663.88;5092684;28;20062;-35
2022/08/16 05:39:18;;;;;;;13.43;12.18;;;;;;;19.39;82.72;100649.72;5092203;28;20425;-35
2022/08/16 05:41:43;;;;;;;16.02;12.93;;;;;;;19.44;82.46;100663.38;5091902;28;20476;-35
2022/08/16 05:44:09;;;;;;;13.30;12.00;;;;;;;19.53;81.99;100645.94;5092284;28;20123;-35
2022/08/16 05:46:34;;;;;;;;;;;;;;;19.73;81.41;100658.59;5091329;28;20063;-35
2022/08/16 05:49:00;;;;;;;14.03;12.73;;;;;;;19.68;81.54;100663.34;5095508;28;19915;-42
2022/08/16 05:51:25;;;;;;;14.70;13.38;;;;;;;19.76;81.39;100674.47;5095905;28;20747;-35
2022/08/16 05:53:50;;;;;;;14.70;13.32;;;;;;;19.68;81.82;100671.56;5095877;28;20038;-35
2022/08/16 05:56:16;;;;;;;16.20;12.98;;;;;;;19.68;81.19;100672.38;5096299;28;20032;-35
2022/08/16 05:58:41;;;;;;;13.98;12.68;;;;;;;19.75;81.08;100672.00;5095554;28;20040;-35
2022/08/16 06:01:07;;;;;;;15.25;13.23;;;;;;;19.80;81.16;100667.25;5095597;28;20038;-35
2022/08/16 06:03:32;;;;;;;12.90;11.80;;;;;;;19.84;80.56;100677.66;5096155;28;20027;-35
2022/08/16 06:05:58;;;;;;;14.25;12.77;;;;;;;19.92;80.20;100675.06;5095680;28;20150;-35
2022/08/16 06:08:23;;;;;;;13.63;12.32;;;;;;;19.98;79.56;100671.09;5095326;28;20486;-35
2022/08/16 06:10:48;;;;;;;14.18;12.85;;;;;;;19.89;79.34;100670.16;5095873;28;20055;-35
2022/08/16 06:13:14;;;;;;;13.52;12.13;;;;;;;20.06;79.68;100686.09;5095721;28;20059;-35
2022/08/16 06:15:39;;;;;;;17.17;12.85;;;;;;;20.05;79.18;100685.25;5095791;28;20028;-35
2022/08/16 06:18:04;;;;;;;14.02;12.52;;;;;;;20.04;79.64;100672.66;5095501;28;20353;-35
2022/08/16 06:20:30;;;;;;;15.20;12.95;;;;;;;20.11;78.80;100676.97;5095220;28;20024;-35
2022/08/16 06:22:57;;;;;;;14.32;12.82;;;;;;;20.17;79.05;100689.50;5095160;28;20093;-35
2022/08/16 06:25:24;;;;;;;15.38;12.88;;;;;;;20.18;79.00;100694.69;5094949;28;20054;-35
2022/08/16 06:27:50;;;;;;;13.70;12.32;;;;;;;20.18;78.92;100688.38;5095075;28;20026;-35
2022/08/16 06:30:16;;;;;;;13.68;12.20;;;;;;;20.26;78.76;100695.94;5094993;28;20040;-36
2022/08/16 06:32:41;;;;;;;13.73;12.32;;;;;;;20.31;78.71;100690.38;5095621;28;20418;-35
2022/08/16 06:35:08;;;;;;;13.50;12.20;;;;;;;20.39;78.41;100695.16;5095142;28;20452;-35
2022/08/16 06:37:33;;;;;;;14.10;12.50;;;;;;;20.44;77.51;100706.06;5095039;28;20024;-35
2022/08/16 06:39:59;;;;;;;15.02;12.50;;;;;;;20.52;77.86;100699.09;5095562;28;20463;-35
2022/08/16 06:42:24;;;;;;;14.27;12.93;;;;;;;20.56;77.30;100694.63;5094577;28;20055;-35
2022/08/16 06:44:49;;;;;;;14.27;12.73;;;;;;;20.61;77.11;100691.81;5094704;28;20032;-35
2022/08/16 06:47:15;;;;;;;13.60;12.25;;;;;;;20.66;77.07;100699.94;5094563;28;20028;-35
2022/08/16 06:49:41;;;;;;;14.15;12.52;;;;;;;20.73;76.93;100689.38;5094859;28;20484;-35
2022/08/16 06:52:07;;;;;;;15.55;13.30;;;;;;;20.69;76.80;100682.03;5094246;28;20036;-35
2022/08/16 06:54:34;;;;;;;15.48;12.68;;;;;;;20.74;76.74;100688.28;5094830;28;20122;-35
2022/08/16 06:56:59;;;;;;;15.23;13.73;;;;;;;20.80;76.49;100700.78;5094504;28;20024;-35
2022/08/16 06:59:25;;;;;;;13.77;12.35;;;;;;;20.78;76.35;100691.22;5094025;28;20092;-35
2022/08/16 07:01:50;;;;;;;14.65;13.25;;;;;;;20.81;76.32;100704.34;5094771;28;20046;-35
2022/08/16 07:04:16;;;;;;;14.88;12.63;;;;;;;20.88;76.20;100692.94;5094547;28;20111;-34
2022/08/16 07:06:42;;;;;;;14.23;12.60;;;;;;;21.01;75.78;100711.41;5094597;28;20459;-35
2022/08/16 07:09:09;;;;;;;14.95;13.43;;;;;;;21.04;75.41;100710.81;5094251;28;20031;-35
2022/08/16 07:11:36;;;;;;;14.27;12.88;;;;;;;21.07;75.52;100701.94;5094470;28;20352;-35
2022/08/16 07:14:01;;;;;;;15.00;13.38;;;;;;;21.14;75.62;100707.84;5094490;28;20043;-35
2022/08/16 07:16:27;;;;;;;13.35;11.95;;;;;;;21.21;75.34;100711.00;5094349;28;20032;-35
2022/08/16 07:18:52;;;;;;;14.65;12.40;;;;;;;21.32;74.98;100715.19;5093921;28;20482;-35
2022/08/16 07:21:18;;;;;;;15.63;14.05;;;;;;;21.31;74.90;100721.81;5094085;28;20035;-35
2022/08/16 07:23:46;;;;;;;14.32;12.93;;;;;;;21.38;74.51;100709.63;5094111;28;20032;-35
2022/08/16 07:26:24;;;;;;;14.57;13.10;;;;;;;21.36;74.79;100709.91;5094116;28;20032;-35
2022/08/16 07:28:50;;;;;;;15.18;13.43;;;;;;;21.43;74.56;100723.28;5094420;28;20028;-35
2022/08/16 07:31:16;;;;;;;15.35;13.73;;;;;;;21.42;74.67;100722.44;5094559;28;20115;-35
2022/08/16 07:33:43;;;;;;;15.02;13.50;;;;;;;21.40;74.23;100713.69;5093806;28;20444;-35
2022/08/16 07:36:09;;;;;;;15.18;13.65;;;;;;;21.58;74.10;100725.69;5094259;28;20036;-35
2022/08/16 07:38:35;;;;;;;14.43;13.07;;;;;;;21.63;74.16;100728.34;5093655;28;20301;-35
2022/08/16 07:41:01;;;;;;;15.27;12.98;;;;;;;21.66;73.90;100738.72;5094017;28;20036;-35
2022/08/16 07:43:27;;;;;;;14.23;12.85;;;;;;;21.72;73.92;100743.00;5093438;28;20119;-35
2022/08/16 07:45:53;;;;;;;13.25;11.93;;;;;;;21.74;73.12;100732.50;5094164;28;20040;-35
2022/08/16 07:48:19;;;;;;;14.48;12.45;;;;;;;21.81;73.03;100737.56;5093594;28;20395;-35
2022/08/16 07:50:44;;;;;;;14.57;12.43;;;;;;;21.85;73.18;100735.81;5093326;28;20028;-35
2022/08/16 07:53:10;;;;;;;13.27;11.75;;;;;;;21.95;72.63;100730.09;5093234;28;20071;-35
2022/08/16 07:55:35;;;;;;;13.48;12.07;;;;;;;21.98;71.99;100731.44;5093815;28;20081;-35
2022/08/16 07:58:02;;;;;;;13.70;11.82;;;;;;;22.00;71.71;100723.66;5093228;28;20054;-35
2022/08/16 08:00:27;;;;;;;14.15;11.45;;;;;;;22.06;71.54;100726.00;5094127;28;20032;-35
2022/08/16 08:02:54;;;;;;;11.48;10.27;;;;;;;22.19;71.63;100740.88;5093106;28;20101;-35
2022/08/16 08:05:21;;;;;;;13.50;10.65;;;;;;;22.22;70.90;100734.75;5093517;28;20380;-35
2022/08/16 08:07:47;;;;;;;11.57;10.40;;;;;;;22.33;70.03;100736.13;5093934;28;20452;-35
2022/08/16 08:10:12;;;;;;;13.55;9.38;;;;;;;22.47;69.95;100738.00;5092501;28;20024;-35
2022/08/16 08:12:38;;;;;;;13.18;11.13;;;;;;;22.53;70.04;100742.25;5092846;28;20040;-35
2022/08/16 08:15:07;;;;;;;11.75;10.50;;;;;;;22.66;69.02;100744.13;5093399;28;20103;-35
2022/08/16 08:17:32;;;;;;;10.82;9.80;;;;;;;22.75;68.71;100750.53;5092646;28;20036;-35
2022/08/16 08:19:58;;;;;;;11.60;9.77;;;;;;;22.84;68.39;100750.56;5093068;28;20157;-35
2022/08/16 08:22:23;;;;;;;9.90;8.57;;;;;;;22.94;66.20;100755.84;5093039;28;20043;-35
2022/08/16 08:24:49;;;;;;;11.52;8.68;;;;;;;22.96;66.14;100752.78;5093025;28;20028;-35
2022/08/16 08:27:14;;;;;;;8.90;7.95;;;;;;;23.09;66.16;100751.88;5092962;28;20032;-35
2022/08/16 08:29:40;;;;;;;9.88;8.50;;;;;;;23.13;65.85;100750.09;5092668;28;20032;-35
2022/08/16 08:32:07;;;;;;;11.43;8.18;;;;;;;23.23;65.22;100754.50;5092812;28;20055;-35
2022/08/16 08:34:33;;;;;;;12.30;8.52;;;;;;;23.18;64.81;100749.97;5093154;28;20020;-36
2022/08/16 08:36:58;;;;;;;10.77;8.65;;;;;;;23.26;65.04;100742.84;5093633;28;20101;-35
2022/08/16 08:39:23;;;;;;;9.00;8.02;;;;;;;23.33;64.76;100749.53;5093156;28;20059;-35
2022/08/16 08:41:49;;;;;;;10.35;7.22;;;;;;;23.52;64.46;100742.94;5093621;28;20032;-35
2022/08/16 08:44:14;;;;;;;10.95;7.78;;;;;;;23.67;63.32;100749.97;5091976;28;20440;-35
2022/08/16 08:46:40;;;;;;;11.45;7.65;;;;;;;23.75;62.69;100754.72;5092732;28;20050;-35
2022/08/16 08:49:07;;;;;;;10.93;6.68;;;;;;;23.88;62.77;100753.78;5093501;28;20028;-35
2022/08/16 08:51:33;;;;;;;8.52;7.03;;;;;;;24.00;61.75;100753.94;5092989;28;20522;-36
2022/08/16 08:53:59;;;;;;;9.68;6.68;;;;;;;24.09;61.62;100753.94;5092726;28;20032;-36
2022/08/16 08:56:25;;;;;;;7.65;6.72;;;;;;;24.12;60.40;100751.34;5092764;28;20035;-36
2022/08/16 08:58:52;;;;;;;9.43;6.00;;;;;;;24.28;60.03;100748.91;5092732;28;20370;-36
2022/08/16 09:01:25;;;;;;;10.80;6.18;;;;;;;24.37;59.93;100760.00;5092998;28;20048;-35
2022/08/16 09:03:51;;;;;;;7.32;6.20;;;;;;;24.48;60.11;100761.28;5093241;28;20090;-35
2022/08/16 09:06:16;;;;;;;8.18;5.68;;;;;;;24.62;59.25;100758.34;5093194;28;20028;-36
2022/08/16 09:08:43;;;;;;;6.55;5.75;;;;;;;24.71;58.91;100761.91;5093231;28;20097;-33
2022/08/16 09:11:08;;;;;;;8.75;5.50;;;;;;;24.76;58.86;100747.91;5092759;28;20464;-35
2022/08/16 09:17:38;;;;;;;8.20;5.03;;;;;;;25.17;58.54;100755.63;5092830;28;20192;-34
2022/08/16 09:20:04;;;;;;;;;;;;;;;25.35;56.96;100764.66;5092840;28;20089;-35
2022/08/16 09:22:29;;;;;;;10.27;5.20;;;;;;;25.42;55.82;100759.41;5095891;28;19919;-35
2022/08/16 09:24:54;;;;;;;5.78;4.53;;;;;;;25.43;54.68;100768.56;5096534;28;20033;-35
2022/08/16 09:27:21;;;;;;;6.45;5.50;;;;;;;25.39;54.40;100770.34;5096244;28;20027;-35
2022/08/16 09:29:46;;;;;;;6.20;4.43;;;;;;;25.46;54.51;100769.81;5096963;28;20032;-35
2022/08/16 09:32:12;;;;;;;7.05;4.30;;;;;;;25.53;54.33;100770.13;5096145;28;20406;-35
2022/08/16 09:34:37;;;;;;;6.50;4.18;;;;;;;25.75;54.36;100767.09;5096723;28;20111;-35
2022/08/16 09:37:03;;;;;;;4.65;3.95;;;;;;;25.88;53.64;100765.22;5095935;28;20490;-35
2022/08/16 09:39:28;;;;;;;7.03;4.15;;;;;;;26.05;53.19;100767.03;5096126;28;20473;-35
2022/08/16 09:41:57;;;;;;;8.65;4.10;;;;;;;26.21;51.81;100765.31;5096019;28;20036;-35
2022/08/16 09:44:24;;;;;;;5.22;4.20;;;;;;;26.25;51.85;100774.53;5095963;28;20056;-35
2022/08/16 09:46:51;;;;;;;9.43;4.28;;;;;;;26.39;51.79;100769.53;5096689;28;20048;-35
2022/08/16 09:49:18;;;;;;;18.00;4.20;;;;;;;26.54;51.42;100770.09;5096587;28;20020;-35
2022/08/16 09:51:43;;;;;;;6.43;4.00;;;;;;;26.57;50.74;100763.88;5096589;28;20067;-35
2022/08/16 09:54:09;;;;;;;5.55;3.70;;;;;;;26.65;49.51;100771.31;5095904;28;20420;-35
2022/08/16 09:56:37;;;;;;;6.50;4.50;;;;;;;26.82;50.24;100773.09;5095550;28;20032;-35
2022/08/16 09:59:04;;;;;;;6.50;3.60;;;;;;;26.93;49.23;100768.72;5094873;28;20464;-35
2022/08/16 10:01:30;;;;;;;5.03;3.47;;;;;;;26.95;48.54;100772.78;5096219;28;20043;-35
2022/08/16 10:03:56;;;;;;;6.03;3.40;;;;;;;27.09;48.52;100775.28;5096099;28;20376;-35
2022/08/16 10:06:23;;;;;;;4.80;3.63;;;;;;;27.02;48.00;100766.66;5096115;28;20078;-35
2022/08/16 10:08:48;;;;;;;5.18;4.00;;;;;;;27.17;47.41;100762.44;5095819;28;20048;-35
2022/08/16 10:13:58;;;;;;;6.32;3.47;;;;;;;27.57;46.82;100764.53;5095734;28;20042;-35
2022/08/16 10:16:24;;;;;;;7.00;3.65;;;;;;;27.72;47.62;100775.00;5095910;28;20028;-35
2022/08/16 10:18:49;;;;;;;7.78;4.03;;;;;;;27.83;46.47;100766.97;5094940;28;20027;-35
2022/08/16 10:21:15;;;;;;;6.63;3.85;;;;;;;27.87;45.46;100771.50;5095276;28;20097;-35
2022/08/16 10:23:42;;;;;;;6.03;3.15;;;;;;;27.94;45.30;100766.13;5095547;28;20441;-35
2022/08/16 10:26:07;;;;;;;5.43;3.45;;;;;;;28.07;45.30;100761.38;5095383;28;20047;-35
2022/08/16 10:28:33;;;;;;;6.85;3.40;;;;;;;28.25;44.72;100770.22;5095661;28;20020;-35
2022/08/16 10:31:00;;;;;;;5.32;3.25;;;;;;;28.20;44.03;100762.13;5095673;28;20062;-35
2022/08/16 10:33:26;;;;;;;6.97;3.38;;;;;;;28.26;43.67;100768.25;5093910;28;20024;-35
2022/08/16 10:35:52;;;;;;;8.13;3.25;;;;;;;28.39;43.29;100770.66;5095749;28;20036;-35
2022/08/16 10:38:17;;;;;;;5.38;2.67;;;;;;;28.43;42.31;100760.47;5095718;28;20032;-35
2022/08/16 10:40:43;;;;;;;5.70;2.97;;;;;;;28.47;42.04;100760.56;5094967;28;20073;-35
2022/08/16 10:43:08;;;;;;;5.43;2.65;;;;;;;28.41;41.68;100771.16;5095121;28;20039;-35
2022/08/16 10:45:33;;;;;;;5.15;2.90;;;;;;;28.44;41.51;100775.97;5094620;28;20464;-35
2022/08/16 10:47:59;;;;;;;5.50;3.03;;;;;;;28.38;41.81;100782.16;5094958;28;20028;-35
2022/08/16 10:50:26;;;;;;;6.07;3.10;;;;;;;28.37;41.90;100778.56;5094770;28;20039;-35
2022/08/16 10:52:52;;;;;;;8.25;3.10;;;;;;;28.44;41.52;100777.97;5094567;28;20061;-35
2022/08/16 10:55:19;;;;;;;8.48;2.92;;;;;;;28.54;42.37;100771.06;5095238;28;20054;-35
2022/08/16 10:57:45;;;;;;;6.85;3.30;;;;;;;28.56;42.30;100782.69;5094543;28;20047;-35
2022/08/16 11:00:14;;;;;;;5.72;2.90;;;;;;;28.65;41.85;100772.22;5094569;28;20400;-35
2022/08/16 11:02:41;;;;;;;5.68;3.05;;;;;;;28.97;41.04;100785.03;5094484;28;20031;-35
2022/08/16 11:05:11;;;;;;;5.68;2.85;;;;;;;29.24;40.71;100793.69;5094750;28;20070;-35
2022/08/16 11:07:39;;;;;;;5.72;2.58;;;;;;;29.40;39.78;100780.56;5094429;28;20027;-34
2022/08/16 11:10:05;;;;;;;6.22;2.50;;;;;;;29.61;39.31;100785.06;5094669;28;20035;-35
2022/08/16 11:12:31;;;;;;;5.80;2.53;;;;;;;29.67;39.18;100792.81;5094230;28;20117;-35
2022/08/16 11:14:56;;;;;;;5.35;2.28;;;;;;;29.74;37.92;100787.38;5095026;28;20048;-35
2022/08/16 11:17:21;;;;;;;4.47;2.72;;;;;;;29.68;37.54;100786.06;5092927;28;20043;-34
2022/08/16 11:19:48;;;;;;;6.25;2.60;;;;;;;29.69;37.40;100789.66;5094153;28;20040;-35
2022/08/16 11:22:13;;;;;;;5.30;2.40;;;;;;;29.88;37.35;100792.47;5093793;28;20036;-35